sensor_id;sensor_type;location;lat;lon;timestamp;pressure;altitude;pressure_sealevel;temperature
5571;BMP180;2808;51.240;6.794;2024-02-23T00:01:27;98446.00;;;7.30
5571;BMP180;2808;51.240;6.794;2024-02-23T00:03:54;98443.00;;;7.30
5571;BMP180;2808;51.240;6.794;2024-02-23T00:06:22;98446.00;;;7.30
5571;BMP180;2808;51.240;6.794;2024-02-23T00:08:56;98458.00;;;7.30
5571;BMP180;2808;51.240;6.794;2024-02-23T00:11:24;98461.00;;;7.30
5571;BMP180;2808;51.240;6.794;2024-02-23T00:13:52;98473.00;;;7.30
5571;BMP180;2808;51.240;6.794;2024-02-23T00:16:21;98468.00;;;7.30
5571;BMP180;2808;51.240;6.794;2024-02-23T00:18:48;98474.00;;;7.20
5571;BMP180;2808;51.240;6.794;2024-02-23T00:21:16;98487.00;;;7.10
5571;BMP180;2808;51.240;6.794;2024-02-23T00:23:43;98479.00;;;7.10
5571;BMP180;2808;51.240;6.794;2024-02-23T00:26:11;98492.00;;;7.00
5571;BMP180;2808;51.240;6.794;2024-02-23T00:28:38;98503.00;;;6.90
5571;BMP180;2808;51.240;6.794;2024-02-23T00:31:05;98498.00;;;6.80
5571;BMP180;2808;51.240;6.794;2024-02-23T00:33:35;98505.00;;;6.70
5571;BMP180;2808;51.240;6.794;2024-02-23T00:36:04;98520.00;;;6.70
5571;BMP180;2808;51.240;6.794;2024-02-23T00:38:31;98513.00;;;6.80
5571;BMP180;2808;51.240;6.794;2024-02-23T00:40:59;98529.00;;;6.70
5571;BMP180;2808;51.240;6.794;2024-02-23T00:43:26;98527.00;;;6.60
5571;BMP180;2808;51.240;6.794;2024-02-23T00:45:55;98541.00;;;6.60
5571;BMP180;2808;51.240;6.794;2024-02-23T00:48:22;98539.00;;;6.60
5571;BMP180;2808;51.240;6.794;2024-02-23T00:50:51;98550.00;;;6.60
5571;BMP180;2808;51.240;6.794;2024-02-23T00:53:18;98553.00;;;6.70
5571;BMP180;2808;51.240;6.794;2024-02-23T00:55:46;98560.00;;;6.70
5571;BMP180;2808;51.240;6.794;2024-02-23T00:58:14;98561.00;;;6.70
5571;BMP180;2808;51.240;6.794;2024-02-23T01:00:41;98554.00;;;6.70
5571;BMP180;2808;51.240;6.794;2024-02-23T01:03:09;98560.00;;;6.60
5571;BMP180;2808;51.240;6.794;2024-02-23T01:05:36;98566.00;;;6.60
5571;BMP180;2808;51.240;6.794;2024-02-23T01:08:07;98573.00;;;6.60
5571;BMP180;2808;51.240;6.794;2024-02-23T01:10:35;98574.00;;;6.60
5571;BMP180;2808;51.240;6.794;2024-02-23T01:13:02;98584.00;;;6.50
5571;BMP180;2808;51.240;6.794;2024-02-23T01:15:31;98584.00;;;6.50
5571;BMP180;2808;51.240;6.794;2024-02-23T01:17:58;98580.00;;;6.40
5571;BMP180;2808;51.240;6.794;2024-02-23T01:20:26;98585.00;;;6.40
5571;BMP180;2808;51.240;6.794;2024-02-23T01:22:54;98584.00;;;6.40
5571;BMP180;2808;51.240;6.794;2024-02-23T01:25:22;98587.00;;;6.40
5571;BMP180;2808;51.240;6.794;2024-02-23T01:27:50;98593.00;;;6.50
5571;BMP180;2808;51.240;6.794;2024-02-23T01:30:17;98594.00;;;6.40
5571;BMP180;2808;51.240;6.794;2024-02-23T01:32:45;98603.00;;;6.50
5571;BMP180;2808;51.240;6.794;2024-02-23T01:35:13;98586.00;;;6.50
5571;BMP180;2808;51.240;6.794;2024-02-23T01:37:40;98590.00;;;6.50
5571;BMP180;2808;51.240;6.794;2024-02-23T01:40:08;98597.00;;;6.50
5571;BMP180;2808;51.240;6.794;2024-02-23T01:42:37;98597.00;;;6.60
5571;BMP180;2808;51.240;6.794;2024-02-23T01:45:06;98599.00;;;6.60
5571;BMP180;2808;51.240;6.794;2024-02-23T01:47:34;98598.00;;;6.60
5571;BMP180;2808;51.240;6.794;2024-02-23T01:50:01;98611.00;;;6.60
5571;BMP180;2808;51.240;6.794;2024-02-23T01:52:29;98615.00;;;6.60
5571;BMP180;2808;51.240;6.794;2024-02-23T01:54:57;98619.00;;;6.60
5571;BMP180;2808;51.240;6.794;2024-02-23T01:57:26;98618.00;;;6.50
5571;BMP180;2808;51.240;6.794;2024-02-23T01:59:55;98626.00;;;6.50
5571;BMP180;2808;51.240;6.794;2024-02-23T02:02:23;98621.00;;;6.40
5571;BMP180;2808;51.240;6.794;2024-02-23T02:04:50;98634.00;;;6.40
5571;BMP180;2808;51.240;6.794;2024-02-23T02:07:18;98631.00;;;6.30
5571;BMP180;2808;51.240;6.794;2024-02-23T02:09:48;98629.00;;;6.30
5571;BMP180;2808;51.240;6.794;2024-02-23T02:12:21;98634.00;;;6.30
5571;BMP180;2808;51.240;6.794;2024-02-23T02:14:52;98630.00;;;6.30
5571;BMP180;2808;51.240;6.794;2024-02-23T02:17:21;98635.00;;;6.30
5571;BMP180;2808;51.240;6.794;2024-02-23T02:19:49;98648.00;;;6.30
5571;BMP180;2808;51.240;6.794;2024-02-23T02:22:16;98649.00;;;6.30
5571;BMP180;2808;51.240;6.794;2024-02-23T02:24:44;98637.00;;;6.30
5571;BMP180;2808;51.240;6.794;2024-02-23T02:27:12;98636.00;;;6.30
5571;BMP180;2808;51.240;6.794;2024-02-23T02:29:40;98652.00;;;6.30
5571;BMP180;2808;51.240;6.794;2024-02-23T02:32:07;98647.00;;;6.20
5571;BMP180;2808;51.240;6.794;2024-02-23T02:34:36;98644.00;;;6.20
5571;BMP180;2808;51.240;6.794;2024-02-23T02:37:04;98655.00;;;6.10
5571;BMP180;2808;51.240;6.794;2024-02-23T02:39:31;98662.00;;;6.20
5571;BMP180;2808;51.240;6.794;2024-02-23T02:41:59;98649.00;;;6.20
5571;BMP180;2808;51.240;6.794;2024-02-23T02:44:26;98669.00;;;6.10
5571;BMP180;2808;51.240;6.794;2024-02-23T02:46:56;98656.00;;;6.10
5571;BMP180;2808;51.240;6.794;2024-02-23T02:49:24;98662.00;;;6.10
5571;BMP180;2808;51.240;6.794;2024-02-23T02:51:52;98658.00;;;6.10
5571;BMP180;2808;51.240;6.794;2024-02-23T02:54:20;98668.00;;;6.10
5571;BMP180;2808;51.240;6.794;2024-02-23T02:56:48;98663.00;;;6.10
5571;BMP180;2808;51.240;6.794;2024-02-23T02:59:16;98664.00;;;6.10
5571;BMP180;2808;51.240;6.794;2024-02-23T03:01:44;98670.00;;;6.00
5571;BMP180;2808;51.240;6.794;2024-02-23T03:04:13;98667.00;;;5.90
5571;BMP180;2808;51.240;6.794;2024-02-23T03:06:40;98685.00;;;5.90
5571;BMP180;2808;51.240;6.794;2024-02-23T03:09:09;98684.00;;;5.90
5571;BMP180;2808;51.240;6.794;2024-02-23T03:11:36;98679.00;;;6.00
5571;BMP180;2808;51.240;6.794;2024-02-23T03:14:05;98675.00;;;6.00
5571;BMP180;2808;51.240;6.794;2024-02-23T03:16:32;98677.00;;;6.00
5571;BMP180;2808;51.240;6.794;2024-02-23T03:19:00;98679.00;;;6.00
5571;BMP180;2808;51.240;6.794;2024-02-23T03:21:27;98682.00;;;6.00
5571;BMP180;2808;51.240;6.794;2024-02-23T03:23:55;98688.00;;;6.00
5571;BMP180;2808;51.240;6.794;2024-02-23T03:26:28;98693.00;;;6.00
5571;BMP180;2808;51.240;6.794;2024-02-23T03:28:55;98706.00;;;6.00
5571;BMP180;2808;51.240;6.794;2024-02-23T03:31:23;98703.00;;;6.00
5571;BMP180;2808;51.240;6.794;2024-02-23T03:33:50;98705.00;;;6.00
5571;BMP180;2808;51.240;6.794;2024-02-23T03:36:18;98710.00;;;6.00
5571;BMP180;2808;51.240;6.794;2024-02-23T03:38:46;98707.00;;;6.00
5571;BMP180;2808;51.240;6.794;2024-02-23T03:41:14;98700.00;;;5.90
5571;BMP180;2808;51.240;6.794;2024-02-23T03:43:43;98698.00;;;5.90
5571;BMP180;2808;51.240;6.794;2024-02-23T03:46:10;98701.00;;;5.90
5571;BMP180;2808;51.240;6.794;2024-02-23T03:48:39;98703.00;;;5.90
5571;BMP180;2808;51.240;6.794;2024-02-23T03:51:10;98705.00;;;5.90
5571;BMP180;2808;51.240;6.794;2024-02-23T03:53:37;98700.00;;;5.90
5571;BMP180;2808;51.240;6.794;2024-02-23T03:56:05;98711.00;;;5.90
5571;BMP180;2808;51.240;6.794;2024-02-23T03:58:32;98719.00;;;6.00
5571;BMP180;2808;51.240;6.794;2024-02-23T04:01:01;98726.00;;;6.00
5571;BMP180;2808;51.240;6.794;2024-02-23T04:03:29;98716.00;;;6.00
5571;BMP180;2808;51.240;6.794;2024-02-23T04:05:56;98725.00;;;6.00
5571;BMP180;2808;51.240;6.794;2024-02-23T04:08:24;98725.00;;;6.00
5571;BMP180;2808;51.240;6.794;2024-02-23T04:10:51;98725.00;;;6.00
5571;BMP180;2808;51.240;6.794;2024-02-23T04:13:19;98721.00;;;6.00
5571;BMP180;2808;51.240;6.794;2024-02-23T04:15:47;98723.00;;;6.10
5571;BMP180;2808;51.240;6.794;2024-02-23T04:18:16;98711.00;;;6.10
5571;BMP180;2808;51.240;6.794;2024-02-23T04:20:46;98720.00;;;6.00
5571;BMP180;2808;51.240;6.794;2024-02-23T04:23:15;98723.00;;;6.00
5571;BMP180;2808;51.240;6.794;2024-02-23T04:25:42;98722.00;;;6.00
5571;BMP180;2808;51.240;6.794;2024-02-23T04:28:09;98736.00;;;6.00
5571;BMP180;2808;51.240;6.794;2024-02-23T04:30:37;98741.00;;;6.00
5571;BMP180;2808;51.240;6.794;2024-02-23T04:33:05;98731.00;;;6.00
5571;BMP180;2808;51.240;6.794;2024-02-23T04:35:34;98745.00;;;6.10
5571;BMP180;2808;51.240;6.794;2024-02-23T04:38:07;98740.00;;;6.20
5571;BMP180;2808;51.240;6.794;2024-02-23T04:40:34;98740.00;;;6.30
5571;BMP180;2808;51.240;6.794;2024-02-23T04:43:02;98748.00;;;6.30
5571;BMP180;2808;51.240;6.794;2024-02-23T04:45:29;98746.00;;;6.30
5571;BMP180;2808;51.240;6.794;2024-02-23T04:47:57;98753.00;;;6.30
5571;BMP180;2808;51.240;6.794;2024-02-23T04:50:24;98749.00;;;6.30
5571;BMP180;2808;51.240;6.794;2024-02-23T04:52:53;98752.00;;;6.40
5571;BMP180;2808;51.240;6.794;2024-02-23T04:55:20;98756.00;;;6.40
5571;BMP180;2808;51.240;6.794;2024-02-23T04:57:48;98755.00;;;6.40
5571;BMP180;2808;51.240;6.794;2024-02-23T05:00:16;98759.00;;;6.30
5571;BMP180;2808;51.240;6.794;2024-02-23T05:02:43;98759.00;;;6.40
5571;BMP180;2808;51.240;6.794;2024-02-23T05:05:11;98765.00;;;6.50
5571;BMP180;2808;51.240;6.794;2024-02-23T05:07:38;98767.00;;;6.50
5571;BMP180;2808;51.240;6.794;2024-02-23T05:10:08;98770.00;;;6.50
5571;BMP180;2808;51.240;6.794;2024-02-23T05:12:36;98767.00;;;6.50
5571;BMP180;2808;51.240;6.794;2024-02-23T05:15:03;98771.00;;;6.50
5571;BMP180;2808;51.240;6.794;2024-02-23T05:17:31;98769.00;;;6.40
5571;BMP180;2808;51.240;6.794;2024-02-23T05:19:59;98767.00;;;6.40
5571;BMP180;2808;51.240;6.794;2024-02-23T05:22:26;98775.00;;;6.40
5571;BMP180;2808;51.240;6.794;2024-02-23T05:24:53;98769.00;;;6.40
5571;BMP180;2808;51.240;6.794;2024-02-23T05:27:22;98779.00;;;6.50
5571;BMP180;2808;51.240;6.794;2024-02-23T05:29:50;98780.00;;;6.50
5571;BMP180;2808;51.240;6.794;2024-02-23T05:32:17;98778.00;;;6.50
5571;BMP180;2808;51.240;6.794;2024-02-23T05:34:45;98774.00;;;6.50
5571;BMP180;2808;51.240;6.794;2024-02-23T05:37:12;98773.00;;;6.50
5571;BMP180;2808;51.240;6.794;2024-02-23T05:39:40;98781.00;;;6.50
5571;BMP180;2808;51.240;6.794;2024-02-23T05:42:07;98778.00;;;6.50
5571;BMP180;2808;51.240;6.794;2024-02-23T05:44:36;98779.00;;;6.50
5571;BMP180;2808;51.240;6.794;2024-02-23T05:47:04;98781.00;;;6.50
5571;BMP180;2808;51.240;6.794;2024-02-23T05:49:33;98787.00;;;6.50
5571;BMP180;2808;51.240;6.794;2024-02-23T05:52:01;98777.00;;;6.50
5571;BMP180;2808;51.240;6.794;2024-02-23T05:54:28;98783.00;;;6.50
5571;BMP180;2808;51.240;6.794;2024-02-23T05:56:56;98776.00;;;6.60
5571;BMP180;2808;51.240;6.794;2024-02-23T05:59:23;98776.00;;;6.60
5571;BMP180;2808;51.240;6.794;2024-02-23T06:01:52;98771.00;;;6.60
5571;BMP180;2808;51.240;6.794;2024-02-23T06:04:22;98777.00;;;6.60
5571;BMP180;2808;51.240;6.794;2024-02-23T06:06:50;98774.00;;;6.60
5571;BMP180;2808;51.240;6.794;2024-02-23T06:09:18;98777.00;;;6.70
5571;BMP180;2808;51.240;6.794;2024-02-23T06:11:46;98767.00;;;6.60
5571;BMP180;2808;51.240;6.794;2024-02-23T06:14:13;98763.00;;;6.60
5571;BMP180;2808;51.240;6.794;2024-02-23T06:16:41;98770.00;;;6.60
5571;BMP180;2808;51.240;6.794;2024-02-23T06:19:10;98769.00;;;6.60
5571;BMP180;2808;51.240;6.794;2024-02-23T06:21:37;98759.00;;;6.60
5571;BMP180;2808;51.240;6.794;2024-02-23T06:24:05;98766.00;;;6.60
5571;BMP180;2808;51.240;6.794;2024-02-23T06:26:34;98775.00;;;6.60
5571;BMP180;2808;51.240;6.794;2024-02-23T06:29:01;98774.00;;;6.60
5571;BMP180;2808;51.240;6.794;2024-02-23T06:31:29;98779.00;;;6.60
5571;BMP180;2808;51.240;6.794;2024-02-23T06:33:57;98770.00;;;6.60
5571;BMP180;2808;51.240;6.794;2024-02-23T06:36:29;98779.00;;;6.60
5571;BMP180;2808;51.240;6.794;2024-02-23T06:38:56;98776.00;;;6.60
5571;BMP180;2808;51.240;6.794;2024-02-23T06:41:24;98777.00;;;6.60
5571;BMP180;2808;51.240;6.794;2024-02-23T06:43:52;98772.00;;;6.60
5571;BMP180;2808;51.240;6.794;2024-02-23T06:46:20;98765.00;;;6.60
5571;BMP180;2808;51.240;6.794;2024-02-23T06:48:47;98756.00;;;6.70
5571;BMP180;2808;51.240;6.794;2024-02-23T06:51:15;98766.00;;;6.70
5571;BMP180;2808;51.240;6.794;2024-02-23T06:53:44;98763.00;;;6.70
5571;BMP180;2808;51.240;6.794;2024-02-23T06:56:12;98755.00;;;6.70
5571;BMP180;2808;51.240;6.794;2024-02-23T06:58:39;98753.00;;;6.70
5571;BMP180;2808;51.240;6.794;2024-02-23T07:01:06;98757.00;;;6.80
5571;BMP180;2808;51.240;6.794;2024-02-23T07:03:37;98752.00;;;6.80
5571;BMP180;2808;51.240;6.794;2024-02-23T07:06:06;98760.00;;;6.80
5571;BMP180;2808;51.240;6.794;2024-02-23T07:08:35;98752.00;;;6.80
5571;BMP180;2808;51.240;6.794;2024-02-23T07:11:04;98750.00;;;6.80
5571;BMP180;2808;51.240;6.794;2024-02-23T07:13:32;98747.00;;;6.80
5571;BMP180;2808;51.240;6.794;2024-02-23T07:16:01;98746.00;;;6.80
5571;BMP180;2808;51.240;6.794;2024-02-23T07:18:28;98756.00;;;6.80
5571;BMP180;2808;51.240;6.794;2024-02-23T07:20:56;98748.00;;;6.90
5571;BMP180;2808;51.240;6.794;2024-02-23T07:23:24;98755.00;;;7.10
5571;BMP180;2808;51.240;6.794;2024-02-23T07:25:51;98755.00;;;7.10
5571;BMP180;2808;51.240;6.794;2024-02-23T07:58:50;98777.00;;;8.00
5571;BMP180;2808;51.240;6.794;2024-02-23T08:01:20;98776.00;;;8.30
5571;BMP180;2808;51.240;6.794;2024-02-23T08:03:51;98771.00;;;8.30
5571;BMP180;2808;51.240;6.794;2024-02-23T08:10:05;98757.00;;;8.20
5571;BMP180;2808;51.240;6.794;2024-02-23T08:13:20;98772.00;;;8.20
5571;BMP180;2808;51.240;6.794;2024-02-23T08:19:26;98769.00;;;8.50
5571;BMP180;2808;51.240;6.794;2024-02-23T08:22:21;98767.00;;;8.50
5571;BMP180;2808;51.240;6.794;2024-02-23T08:25:34;98753.00;;;8.50
5571;BMP180;2808;51.240;6.794;2024-02-23T08:35:40;98764.00;;;8.30
5571;BMP180;2808;51.240;6.794;2024-02-23T08:38:10;98769.00;;;8.20
5571;BMP180;2808;51.240;6.794;2024-02-23T08:40:51;98774.00;;;8.10
5571;BMP180;2808;51.240;6.794;2024-02-23T08:43:21;98791.00;;;8.10
5571;BMP180;2808;51.240;6.794;2024-02-23T08:45:49;98783.00;;;8.10
5571;BMP180;2808;51.240;6.794;2024-02-23T08:48:17;98781.00;;;8.10
5571;BMP180;2808;51.240;6.794;2024-02-23T08:51:10;98777.00;;;8.10
5571;BMP180;2808;51.240;6.794;2024-02-23T08:53:37;98773.00;;;8.10
5571;BMP180;2808;51.240;6.794;2024-02-23T08:58:48;98779.00;;;8.00
5571;BMP180;2808;51.240;6.794;2024-02-23T09:01:17;98787.00;;;8.00
5571;BMP180;2808;51.240;6.794;2024-02-23T09:03:48;98767.00;;;8.00
5571;BMP180;2808;51.240;6.794;2024-02-23T09:13:10;98783.00;;;8.10
5571;BMP180;2808;51.240;6.794;2024-02-23T09:15:38;98793.00;;;8.20
5571;BMP180;2808;51.240;6.794;2024-02-23T09:18:08;98784.00;;;8.30
5571;BMP180;2808;51.240;6.794;2024-02-23T09:20:36;98783.00;;;8.30
5571;BMP180;2808;51.240;6.794;2024-02-23T09:23:06;98787.00;;;8.30
5571;BMP180;2808;51.240;6.794;2024-02-23T09:25:48;98787.00;;;8.20
5571;BMP180;2808;51.240;6.794;2024-02-23T09:28:16;98783.00;;;8.30
5571;BMP180;2808;51.240;6.794;2024-02-23T09:30:48;98788.00;;;8.40
5571;BMP180;2808;51.240;6.794;2024-02-23T09:33:19;98802.00;;;8.50
5571;BMP180;2808;51.240;6.794;2024-02-23T09:35:47;98788.00;;;8.70
5571;BMP180;2808;51.240;6.794;2024-02-23T09:38:15;98787.00;;;8.70
5571;BMP180;2808;51.240;6.794;2024-02-23T09:44:14;98783.00;;;8.80
5571;BMP180;2808;51.240;6.794;2024-02-23T09:47:01;98785.00;;;8.80
5571;BMP180;2808;51.240;6.794;2024-02-23T09:49:55;98794.00;;;8.70
5571;BMP180;2808;51.240;6.794;2024-02-23T09:52:46;98797.00;;;8.60
5571;BMP180;2808;51.240;6.794;2024-02-23T09:55:38;98779.00;;;8.50
5571;BMP180;2808;51.240;6.794;2024-02-23T10:01:30;98791.00;;;8.60
5571;BMP180;2808;51.240;6.794;2024-02-23T10:04:16;98796.00;;;8.60
5571;BMP180;2808;51.240;6.794;2024-02-23T10:06:52;98788.00;;;8.60
5571;BMP180;2808;51.240;6.794;2024-02-23T10:09:24;98783.00;;;8.60
5571;BMP180;2808;51.240;6.794;2024-02-23T10:11:54;98800.00;;;8.70
5571;BMP180;2808;51.240;6.794;2024-02-23T10:14:25;98794.00;;;8.70
5571;BMP180;2808;51.240;6.794;2024-02-23T10:17:03;98802.00;;;8.80
5571;BMP180;2808;51.240;6.794;2024-02-23T10:19:37;98788.00;;;8.80
5571;BMP180;2808;51.240;6.794;2024-02-23T10:22:08;98792.00;;;9.00
5571;BMP180;2808;51.240;6.794;2024-02-23T10:24:41;98797.00;;;9.00
5571;BMP180;2808;51.240;6.794;2024-02-23T10:27:09;98786.00;;;9.10
5571;BMP180;2808;51.240;6.794;2024-02-23T10:29:59;98795.00;;;9.30
5571;BMP180;2808;51.240;6.794;2024-02-23T10:32:50;98808.00;;;9.20
5571;BMP180;2808;51.240;6.794;2024-02-23T10:35:27;98804.00;;;9.30
5571;BMP180;2808;51.240;6.794;2024-02-23T10:37:57;98795.00;;;9.30
5571;BMP180;2808;51.240;6.794;2024-02-23T10:40:31;98801.00;;;9.30
5571;BMP180;2808;51.240;6.794;2024-02-23T10:43:10;98797.00;;;9.20
5571;BMP180;2808;51.240;6.794;2024-02-23T10:45:48;98800.00;;;9.20
5571;BMP180;2808;51.240;6.794;2024-02-23T10:48:21;98810.00;;;9.10
5571;BMP180;2808;51.240;6.794;2024-02-23T10:51:03;98803.00;;;9.00
5571;BMP180;2808;51.240;6.794;2024-02-23T10:53:41;98824.00;;;9.00
5571;BMP180;2808;51.240;6.794;2024-02-23T10:56:12;98807.00;;;9.00
5571;BMP180;2808;51.240;6.794;2024-02-23T10:58:40;98822.00;;;9.00
5571;BMP180;2808;51.240;6.794;2024-02-23T11:01:16;98821.00;;;9.00
5571;BMP180;2808;51.240;6.794;2024-02-23T11:04:09;98802.00;;;9.00
5571;BMP180;2808;51.240;6.794;2024-02-23T11:06:37;98821.00;;;8.90
5571;BMP180;2808;51.240;6.794;2024-02-23T11:09:06;98828.00;;;8.90
5571;BMP180;2808;51.240;6.794;2024-02-23T11:11:36;98815.00;;;8.80
5571;BMP180;2808;51.240;6.794;2024-02-23T11:14:08;98814.00;;;8.80
5571;BMP180;2808;51.240;6.794;2024-02-23T11:16:41;98814.00;;;8.80
5571;BMP180;2808;51.240;6.794;2024-02-23T11:19:10;98803.00;;;8.90
5571;BMP180;2808;51.240;6.794;2024-02-23T11:21:38;98800.00;;;8.80
5571;BMP180;2808;51.240;6.794;2024-02-23T11:24:06;98808.00;;;8.90
5571;BMP180;2808;51.240;6.794;2024-02-23T11:26:37;98806.00;;;8.90
5571;BMP180;2808;51.240;6.794;2024-02-23T11:29:11;98810.00;;;9.00
5571;BMP180;2808;51.240;6.794;2024-02-23T11:31:51;98800.00;;;9.00
5571;BMP180;2808;51.240;6.794;2024-02-23T11:34:22;98803.00;;;9.10
5571;BMP180;2808;51.240;6.794;2024-02-23T11:36:56;98801.00;;;9.20
5571;BMP180;2808;51.240;6.794;2024-02-23T11:39:33;98805.00;;;9.20
5571;BMP180;2808;51.240;6.794;2024-02-23T11:42:05;98811.00;;;9.20
5571;BMP180;2808;51.240;6.794;2024-02-23T11:44:33;98816.00;;;9.10
5571;BMP180;2808;51.240;6.794;2024-02-23T11:47:03;98816.00;;;9.10
5571;BMP180;2808;51.240;6.794;2024-02-23T11:49:30;98812.00;;;9.10
5571;BMP180;2808;51.240;6.794;2024-02-23T11:51:58;98816.00;;;9.10
5571;BMP180;2808;51.240;6.794;2024-02-23T11:54:25;98814.00;;;9.20
5571;BMP180;2808;51.240;6.794;2024-02-23T11:56:53;98814.00;;;9.20
5571;BMP180;2808;51.240;6.794;2024-02-23T11:59:21;98819.00;;;9.30
5571;BMP180;2808;51.240;6.794;2024-02-23T12:01:49;98801.00;;;9.30
5571;BMP180;2808;51.240;6.794;2024-02-23T12:04:20;98798.00;;;9.20
5571;BMP180;2808;51.240;6.794;2024-02-23T12:06:48;98814.00;;;9.20
5571;BMP180;2808;51.240;6.794;2024-02-23T12:09:16;98813.00;;;9.20
5571;BMP180;2808;51.240;6.794;2024-02-23T12:11:47;98811.00;;;9.20
5571;BMP180;2808;51.240;6.794;2024-02-23T12:14:15;98805.00;;;9.20
5571;BMP180;2808;51.240;6.794;2024-02-23T12:16:44;98808.00;;;9.30
5571;BMP180;2808;51.240;6.794;2024-02-23T12:19:12;98811.00;;;9.30
5571;BMP180;2808;51.240;6.794;2024-02-23T12:21:45;98794.00;;;9.30
5571;BMP180;2808;51.240;6.794;2024-02-23T12:24:13;98804.00;;;9.30
5571;BMP180;2808;51.240;6.794;2024-02-23T12:26:41;98809.00;;;9.40
5571;BMP180;2808;51.240;6.794;2024-02-23T12:29:10;98809.00;;;9.40
5571;BMP180;2808;51.240;6.794;2024-02-23T12:31:38;98808.00;;;9.40
5571;BMP180;2808;51.240;6.794;2024-02-23T22:13:30;99006.00;;;6.90
5571;BMP180;2808;51.240;6.794;2024-02-23T22:16:01;99014.00;;;6.90
5571;BMP180;2808;51.240;6.794;2024-02-23T22:18:29;99007.00;;;6.90
5571;BMP180;2808;51.240;6.794;2024-02-23T22:20:59;99014.00;;;6.90
5571;BMP180;2808;51.240;6.794;2024-02-23T22:23:40;99008.00;;;6.90
5571;BMP180;2808;51.240;6.794;2024-02-23T22:26:11;99015.00;;;6.90
5571;BMP180;2808;51.240;6.794;2024-02-23T22:28:42;99015.00;;;6.90
5571;BMP180;2808;51.240;6.794;2024-02-23T22:31:13;99014.00;;;6.90
5571;BMP180;2808;51.240;6.794;2024-02-23T22:33:58;99013.00;;;6.90
5571;BMP180;2808;51.240;6.794;2024-02-23T22:36:26;99019.00;;;6.90
5571;BMP180;2808;51.240;6.794;2024-02-23T22:38:53;99016.00;;;6.90
5571;BMP180;2808;51.240;6.794;2024-02-23T22:41:21;99014.00;;;6.90
5571;BMP180;2808;51.240;6.794;2024-02-23T22:43:53;99016.00;;;6.90
5571;BMP180;2808;51.240;6.794;2024-02-23T22:46:21;99017.00;;;6.90
5571;BMP180;2808;51.240;6.794;2024-02-23T22:48:49;99008.00;;;6.90
5571;BMP180;2808;51.240;6.794;2024-02-23T22:51:21;99007.00;;;6.90
5571;BMP180;2808;51.240;6.794;2024-02-23T22:53:49;99014.00;;;6.90
5571;BMP180;2808;51.240;6.794;2024-02-23T22:56:16;99003.00;;;6.90
5571;BMP180;2808;51.240;6.794;2024-02-23T22:58:44;99012.00;;;6.90
5571;BMP180;2808;51.240;6.794;2024-02-23T23:01:15;99017.00;;;6.90
5571;BMP180;2808;51.240;6.794;2024-02-23T23:03:42;99008.00;;;6.90
5571;BMP180;2808;51.240;6.794;2024-02-23T23:06:10;99012.00;;;6.90
5571;BMP180;2808;51.240;6.794;2024-02-23T23:08:38;99006.00;;;6.90
5571;BMP180;2808;51.240;6.794;2024-02-23T23:11:11;99001.00;;;6.90
5571;BMP180;2808;51.240;6.794;2024-02-23T23:13:49;99007.00;;;7.00
5571;BMP180;2808;51.240;6.794;2024-02-23T23:16:22;99007.00;;;6.90
5571;BMP180;2808;51.240;6.794;2024-02-23T23:19:09;99019.00;;;6.90
5571;BMP180;2808;51.240;6.794;2024-02-23T23:21:36;99015.00;;;6.90
5571;BMP180;2808;51.240;6.794;2024-02-23T23:24:07;99015.00;;;6.90
5571;BMP180;2808;51.240;6.794;2024-02-23T23:26:38;99019.00;;;6.90
5571;BMP180;2808;51.240;6.794;2024-02-23T23:29:06;99011.00;;;6.90
5571;BMP180;2808;51.240;6.794;2024-02-23T23:31:35;99009.00;;;7.00
5571;BMP180;2808;51.240;6.794;2024-02-23T23:34:05;99009.00;;;6.90
5571;BMP180;2808;51.240;6.794;2024-02-23T23:36:33;99012.00;;;6.90
5571;BMP180;2808;51.240;6.794;2024-02-23T23:39:01;99018.00;;;6.90
5571;BMP180;2808;51.240;6.794;2024-02-23T23:41:33;99025.00;;;6.90
5571;BMP180;2808;51.240;6.794;2024-02-23T23:44:02;99014.00;;;6.80
5571;BMP180;2808;51.240;6.794;2024-02-23T23:46:30;99016.00;;;6.80
5571;BMP180;2808;51.240;6.794;2024-02-23T23:48:59;99018.00;;;6.80
5571;BMP180;2808;51.240;6.794;2024-02-23T23:51:28;99020.00;;;6.80
5571;BMP180;2808;51.240;6.794;2024-02-23T23:54:05;99014.00;;;6.80
5571;BMP180;2808;51.240;6.794;2024-02-23T23:56:33;99015.00;;;6.90
5571;BMP180;2808;51.240;6.794;2024-02-23T23:59:03;99019.00;;;6.80
